createdAt,value
2022-12-11T00:00:48.549Z,7.85
2022-12-11T00:03:16.744Z,8.30
2022-12-11T00:05:44.373Z,8.45
2022-12-11T00:08:11.925Z,7.80
2022-12-11T00:10:38.990Z,8.20
2022-12-11T00:13:09.337Z,8.02
2022-12-11T00:15:38.262Z,8.30
2022-12-11T00:18:05.065Z,8.23
2022-12-11T00:20:31.862Z,8.23
2022-12-11T00:22:58.603Z,7.82
2022-12-11T00:25:25.430Z,7.90
2022-12-11T00:27:52.171Z,8.13
2022-12-11T00:30:19.099Z,7.80
2022-12-11T00:32:45.863Z,8.10
2022-12-11T00:35:13.013Z,8.15
2022-12-11T00:37:40.066Z,8.48
2022-12-11T00:40:07.553Z,7.85
2022-12-11T00:42:34.337Z,8.30
2022-12-11T00:45:01.071Z,8.60
2022-12-11T00:47:27.838Z,8.18
2022-12-11T00:49:54.586Z,8.30
2022-12-11T00:52:21.376Z,8.63
2022-12-11T00:54:48.153Z,8.65
2022-12-11T00:57:14.881Z,8.63
2022-12-11T00:59:41.608Z,7.73
2022-12-11T01:02:08.430Z,8.40
2022-12-11T01:04:37.051Z,7.90
2022-12-11T01:07:04.034Z,8.20
2022-12-11T01:09:30.779Z,7.57
2022-12-11T01:11:57.589Z,8.13
2022-12-11T01:14:24.422Z,8.30
2022-12-11T01:16:51.283Z,7.97
2022-12-11T01:19:18.098Z,8.40
2022-12-11T01:21:44.828Z,7.22
2022-12-11T01:24:11.621Z,7.40
2022-12-11T01:26:38.387Z,7.77
2022-12-11T01:29:05.152Z,7.40
2022-12-11T01:31:31.888Z,7.80
2022-12-11T01:33:58.658Z,7.40
2022-12-11T01:36:25.491Z,7.30
2022-12-11T01:38:52.349Z,7.38
2022-12-11T01:41:19.389Z,7.28
2022-12-11T01:44:06.191Z,7.70
2022-12-11T01:46:35.878Z,7.40
2022-12-11T01:49:07.530Z,7.75
2022-12-11T01:51:44.049Z,7.32
2022-12-11T01:57:08.076Z,7.55
2022-12-11T01:59:39.242Z,7.70
2022-12-11T02:02:16.399Z,7.50
2022-12-11T02:07:51.428Z,7.60
2022-12-11T02:10:18.785Z,7.70
2022-12-11T02:13:00.079Z,7.43
2022-12-11T02:15:29.585Z,8.00
2022-12-11T02:18:32.835Z,7.68
2022-12-11T02:24:32.789Z,8.07
2022-12-11T02:27:10.074Z,7.53
2022-12-11T02:29:51.852Z,7.55
2022-12-11T02:32:42.746Z,7.30
2022-12-11T02:37:45.097Z,7.03
2022-12-11T02:40:14.542Z,7.60
2022-12-11T02:42:43.866Z,6.88
2022-12-11T02:45:12.136Z,7.40
2022-12-11T02:47:40.170Z,7.00
2022-12-11T02:50:11.905Z,8.10
2022-12-11T02:52:41.342Z,7.55
2022-12-11T02:55:10.727Z,7.90
2022-12-11T02:57:44.402Z,7.93
2022-12-11T03:00:12.125Z,7.75
2022-12-11T03:02:40.308Z,7.35
2022-12-11T03:05:08.149Z,7.60
2022-12-11T03:07:38.030Z,6.85
2022-12-11T03:12:56.109Z,7.78
2022-12-11T03:15:33.096Z,7.50
2022-12-11T03:18:15.647Z,7.55
2022-12-11T03:20:51.730Z,8.52
2022-12-11T03:23:24.267Z,7.90
2022-12-11T03:27:12.083Z,0
2022-12-11T03:29:00.468Z,7.40
2022-12-11T03:37:05.171Z,7.55
2022-12-11T03:39:36.745Z,7.15
2022-12-11T03:42:06.673Z,8.45
2022-12-11T03:44:36.044Z,7.93
2022-12-11T03:47:06.829Z,8.55
2022-12-11T03:49:42.059Z,7.65
2022-12-11T03:52:11.326Z,8.40
2022-12-11T03:54:39.404Z,8.02
2022-12-11T03:57:09.529Z,7.50
2022-12-11T03:59:36.315Z,7.00
2022-12-11T04:02:03.623Z,8.40
2022-12-11T04:04:30.417Z,8.57
2022-12-11T04:06:57.215Z,8.50
2022-12-11T04:09:23.979Z,8.20
2022-12-11T04:11:50.724Z,8.03
2022-12-11T04:14:17.440Z,8.30
2022-12-11T04:16:44.244Z,8.30
2022-12-11T04:19:11.157Z,8.65
2022-12-11T04:21:39.688Z,8.60
2022-12-11T04:24:07.439Z,8.23
2022-12-11T04:26:34.209Z,8.18
2022-12-11T04:29:00.979Z,8.30
2022-12-11T04:31:27.759Z,8.05
2022-12-11T04:33:54.565Z,8.20
2022-12-11T04:36:21.525Z,7.80
2022-12-11T04:38:48.287Z,8.40
2022-12-11T04:41:16.987Z,8.30
2022-12-11T04:43:44.211Z,8.20
2022-12-11T04:46:12.176Z,8.10
2022-12-11T04:48:39.994Z,8.32
2022-12-11T04:51:08.080Z,8.32
2022-12-11T04:53:35.433Z,8.57
2022-12-11T04:56:05.612Z,8.50
2022-12-11T05:01:22.177Z,8.65
2022-12-11T05:06:36.363Z,7.55
2022-12-11T05:11:30.232Z,7.70
2022-12-11T05:13:57.013Z,7.70
2022-12-11T05:19:10.881Z,7.70
2022-12-11T05:24:24.409Z,7.47
2022-12-11T05:26:51.143Z,7.33
2022-12-11T05:29:17.931Z,7.70
2022-12-11T05:31:44.789Z,7.90
2022-12-11T05:34:11.681Z,7.90
2022-12-11T05:36:38.546Z,7.60
2022-12-11T05:39:05.493Z,7.40
2022-12-11T05:41:33.763Z,7.50
2022-12-11T05:44:00.772Z,7.93
2022-12-11T05:46:29.898Z,7.95
2022-12-11T05:51:46.741Z,8.27
2022-12-11T05:57:00.449Z,7.30
2022-12-11T06:02:13.969Z,7.17
2022-12-11T06:04:40.804Z,7.85
2022-12-11T06:07:07.582Z,7.80
2022-12-11T06:09:34.300Z,8.10
2022-12-11T06:12:01.100Z,7.60
2022-12-11T06:14:27.877Z,8.30
2022-12-11T06:16:54.643Z,8.32
2022-12-11T06:19:21.397Z,8.17
2022-12-11T06:24:35.070Z,7.80
2022-12-11T06:29:48.521Z,8.50
2022-12-11T06:32:15.340Z,8.32
2022-12-11T06:34:42.096Z,8.82
2022-12-11T06:37:08.867Z,12.15
2022-12-11T06:39:35.663Z,9.48
2022-12-11T06:42:02.440Z,9.30
2022-12-11T06:44:29.154Z,9.10
2022-12-11T06:46:55.904Z,9.23
2022-12-11T06:49:22.742Z,9.25
2022-12-11T06:51:49.632Z,9.20
2022-12-11T06:54:16.420Z,9.70
2022-12-11T06:56:43.196Z,16.63
2022-12-11T06:59:13.013Z,13.98
2022-12-11T07:01:39.850Z,13.70
2022-12-11T07:04:06.669Z,12.73
2022-12-11T07:06:33.411Z,9.47
2022-12-11T07:09:00.137Z,9.93
2022-12-11T07:11:26.886Z,10.20
2022-12-11T07:13:53.633Z,8.47
2022-12-11T07:16:20.517Z,9.20
2022-12-11T07:18:49.570Z,8.80
2022-12-11T07:21:17.377Z,9.00
2022-12-11T07:23:44.287Z,8.90
2022-12-11T07:26:13.900Z,9.50
2022-12-11T07:28:41.589Z,9.50
2022-12-11T07:31:10.272Z,9.60
2022-12-11T07:33:37.301Z,9.35
2022-12-11T07:36:06.083Z,9.25
2022-12-11T07:38:33.241Z,9.75
2022-12-11T07:41:11.781Z,9.45
2022-12-11T07:43:38.940Z,9.50
2022-12-11T07:46:08.803Z,9.10
2022-12-11T07:48:36.783Z,12.30
2022-12-11T07:51:21.822Z,13.85
2022-12-11T07:53:50.151Z,12.90
2022-12-11T07:56:18.375Z,10.87
2022-12-11T07:58:45.919Z,8.95
2022-12-11T08:01:18.528Z,9.95
2022-12-11T08:03:45.374Z,9.10
2022-12-11T08:06:12.730Z,13.37
2022-12-11T08:08:40.187Z,12.75
2022-12-11T08:11:12.179Z,13.35
2022-12-11T08:13:39.646Z,11.02
2022-12-11T08:16:09.224Z,10.50
2022-12-11T08:17:00.115Z,0
2022-12-11T08:18:37.402Z,10.75
2022-12-11T08:21:08.407Z,10.35
2022-12-11T08:23:35.395Z,10.27
2022-12-11T08:26:04.227Z,10.30
2022-12-11T08:31:18.788Z,11.10
2022-12-11T08:36:33.094Z,13.00
2022-12-11T08:41:46.626Z,11.60
2022-12-11T08:44:16.632Z,11.20
2022-12-11T08:46:43.911Z,10.75
2022-12-11T08:49:10.716Z,10.93
2022-12-11T08:51:37.477Z,10.50
2022-12-11T08:54:04.351Z,10.27
2022-12-11T08:56:31.560Z,10.50
2022-12-11T08:59:01.044Z,10.27
2022-12-11T09:01:28.350Z,10.07
2022-12-11T09:03:56.884Z,9.55
2022-12-11T09:06:26.378Z,9.90
2022-12-11T09:08:54.092Z,9.37
2022-12-11T09:11:33.208Z,10.55
2022-12-11T09:14:06.739Z,44.38
2022-12-11T09:16:35.673Z,26.67
2022-12-11T09:19:02.412Z,12.87
2022-12-11T09:21:30.320Z,10.10
2022-12-11T09:23:59.304Z,9.32
2022-12-11T09:28:54.940Z,10.07
2022-12-11T09:31:27.893Z,9.60
2022-12-11T09:33:56.956Z,10.05
2022-12-11T09:36:24.159Z,18.90
2022-12-11T09:38:51.495Z,24.13
2022-12-11T09:41:21.216Z,30.67
2022-12-11T09:44:09.612Z,12.23
2022-12-11T09:49:39.398Z,9.50
2022-12-11T09:52:25.322Z,9.40
2022-12-11T09:54:58.638Z,10.20
2022-12-11T09:57:43.129Z,10.10
2022-12-11T10:00:39.496Z,9.98
2022-12-11T10:03:40.027Z,10.37
2022-12-11T10:06:32.512Z,10.48
2022-12-11T10:09:11.136Z,17.40
2022-12-11T10:11:56.114Z,17.35
2022-12-11T10:14:43.523Z,12.80
2022-12-11T10:17:12.868Z,10.45
2022-12-11T10:19:42.000Z,10.07
2022-12-11T10:22:23.304Z,10.20
2022-12-11T10:25:22.484Z,10.00
2022-12-11T10:27:52.457Z,10.13
2022-12-11T10:30:22.515Z,10.25
2022-12-11T10:33:16.634Z,18.40
2022-12-11T10:35:51.586Z,14.05
2022-12-11T10:37:02.767Z,0
2022-12-11T10:38:28.963Z,11.65
2022-12-11T10:41:00.760Z,10.70
2022-12-11T10:43:34.772Z,10.52
2022-12-11T10:46:01.563Z,10.40
2022-12-11T10:48:28.370Z,9.63
2022-12-11T10:51:02.288Z,10.27
2022-12-11T10:53:30.565Z,10.50
2022-12-11T10:58:50.123Z,10.30
2022-12-11T11:01:21.368Z,9.15
2022-12-11T11:04:03.167Z,9.25
2022-12-11T11:08:59.098Z,14.70
2022-12-11T11:11:27.429Z,10.65
2022-12-11T11:14:17.581Z,9.20
2022-12-11T11:16:50.228Z,9.40
2022-12-11T11:19:21.942Z,9.50
2022-12-11T11:21:52.077Z,9.53
2022-12-11T11:24:36.221Z,9.30
2022-12-11T11:27:13.450Z,9.60
2022-12-11T11:27:14.429Z,0
2022-12-11T11:29:41.822Z,9.98
2022-12-11T11:32:22.646Z,10.55
2022-12-11T11:34:49.499Z,18.80
2022-12-11T11:37:30.202Z,11.30
2022-12-11T11:40:06.016Z,10.00
2022-12-11T11:42:46.751Z,10.30
2022-12-11T11:45:20.637Z,10.30
2022-12-11T11:48:11.080Z,11.30
2022-12-11T11:50:43.974Z,19.85
2022-12-11T11:53:20.901Z,18.15
2022-12-11T11:56:21.991Z,11.82
2022-12-11T12:02:00.785Z,11.02
2022-12-11T12:04:33.350Z,11.20
2022-12-11T12:07:02.887Z,10.88
2022-12-11T12:09:50.986Z,10.00
2022-12-11T12:12:44.019Z,9.80
2022-12-11T12:15:28.201Z,10.48
2022-12-11T12:20:36.570Z,18.70
2022-12-11T12:26:16.088Z,15.23
2022-12-11T12:29:16.690Z,12.40
2022-12-11T12:32:29.446Z,31.60
2022-12-11T12:35:02.175Z,28.25
2022-12-11T12:37:46.142Z,17.88
2022-12-11T12:40:31.698Z,12.20
2022-12-11T12:43:36.347Z,11.90
2022-12-11T12:46:16.135Z,11.20
2022-12-11T12:48:44.205Z,11.20
2022-12-11T12:54:06.682Z,11.02
2022-12-11T12:56:38.227Z,11.82
2022-12-11T12:59:18.069Z,11.73
2022-12-11T13:04:57.424Z,11.60
2022-12-11T13:07:27.848Z,11.90
2022-12-11T13:10:25.915Z,12.40
2022-12-11T13:12:52.812Z,21.38
2022-12-11T13:18:36.971Z,12.95
2022-12-11T13:21:24.766Z,12.57
2022-12-11T13:23:51.954Z,12.68
2022-12-11T13:26:33.305Z,12.50
2022-12-11T13:29:00.129Z,12.77
2022-12-11T13:31:38.682Z,12.20
2022-12-11T13:34:18.241Z,11.88
2022-12-11T13:36:49.385Z,11.90
2022-12-11T13:39:23.723Z,11.17
2022-12-11T13:44:48.280Z,11.65
2022-12-11T13:47:18.141Z,12.00
2022-12-11T13:49:50.009Z,11.85
2022-12-11T13:52:24.836Z,11.80
2022-12-11T13:54:56.034Z,12.35
2022-12-11T13:57:26.326Z,12.00
2022-12-11T14:02:42.328Z,12.80
2022-12-11T14:08:03.862Z,12.70
2022-12-11T14:13:28.404Z,12.55
2022-12-11T14:18:42.029Z,13.85
2022-12-11T14:21:23.421Z,13.60
2022-12-11T14:23:59.057Z,14.20
2022-12-11T14:26:31.365Z,13.60
2022-12-11T14:28:58.158Z,14.18
2022-12-11T14:31:30.984Z,15.10
2022-12-11T14:34:32.270Z,14.40
2022-12-11T14:37:00.896Z,13.70
2022-12-11T14:39:30.624Z,15.20
2022-12-11T14:42:14.896Z,14.90
2022-12-11T14:44:50.182Z,13.93
2022-12-11T14:47:24.145Z,14.85
2022-12-11T14:50:02.921Z,15.15
2022-12-11T14:52:33.793Z,14.88
2022-12-11T14:55:10.326Z,14.80
2022-12-11T14:57:40.196Z,16.35
2022-12-11T15:03:03.851Z,17.10
2022-12-11T15:05:37.194Z,14.80
2022-12-11T15:08:10.376Z,14.70
2022-12-11T15:10:57.210Z,13.85
2022-12-11T15:13:24.450Z,14.85
2022-12-11T15:18:42.579Z,14.40
2022-12-11T15:24:02.111Z,14.33
2022-12-11T15:26:44.436Z,16.23
2022-12-11T15:29:31.675Z,16.60
2022-12-11T15:32:01.163Z,14.90
2022-12-11T15:34:33.455Z,15.00
2022-12-11T15:39:46.933Z,18.40
2022-12-11T15:42:39.644Z,14.90
2022-12-11T15:45:08.956Z,15.20
2022-12-11T15:50:27.461Z,15.10
2022-12-11T15:55:42.750Z,15.57
2022-12-11T15:58:14.910Z,19.00
2022-12-11T16:00:41.769Z,17.50
2022-12-11T16:03:12.044Z,25.85
2022-12-11T16:05:39.288Z,18.05
2022-12-11T16:08:06.105Z,16.10
2022-12-11T16:10:32.910Z,15.55
2022-12-11T16:12:59.872Z,15.02
2022-12-11T16:15:27.457Z,16.35
2022-12-11T16:18:01.745Z,16.02
2022-12-11T16:20:29.001Z,16.00
2022-12-11T16:22:55.702Z,15.50
2022-12-11T16:25:23.148Z,15.90
2022-12-11T16:27:49.844Z,18.13
2022-12-11T16:30:16.648Z,18.75
2022-12-11T16:32:44.101Z,15.00
2022-12-11T16:35:15.134Z,14.80
2022-12-11T16:37:41.903Z,14.68
2022-12-11T16:40:09.358Z,14.88
2022-12-11T16:42:37.576Z,14.05
2022-12-11T16:45:11.309Z,14.00
2022-12-11T16:50:24.981Z,18.35
2022-12-11T16:52:51.760Z,14.85
2022-12-11T16:55:18.615Z,14.10
2022-12-11T16:57:45.371Z,13.73
2022-12-11T17:00:12.354Z,18.50
2022-12-11T17:05:25.864Z,15.32
2022-12-11T17:10:41.007Z,15.05
2022-12-11T17:13:08.070Z,15.30
2022-12-11T17:14:32.777Z,0
2022-12-11T17:15:35.209Z,15.80
2022-12-11T17:18:02.032Z,16.05
2022-12-11T17:20:28.758Z,15.23
2022-12-11T17:22:55.499Z,17.67
2022-12-11T17:25:22.257Z,27.88
2022-12-11T17:27:49.586Z,32.53
2022-12-11T17:30:16.545Z,21.35
2022-12-11T17:32:46.771Z,17.00
2022-12-11T17:35:13.753Z,16.40
2022-12-11T17:37:40.961Z,15.73
2022-12-11T17:42:54.883Z,16.75
2022-12-11T17:48:08.278Z,16.27
2022-12-11T17:53:23.017Z,16.00
2022-12-11T17:55:50.356Z,16.60
2022-12-11T17:58:20.093Z,16.55
2022-12-11T18:00:49.180Z,16.95
2022-12-11T18:03:16.324Z,18.45
2022-12-11T18:05:48.333Z,16.98
2022-12-11T18:08:20.992Z,16.88
2022-12-11T18:10:47.830Z,17.15
2022-12-11T18:13:15.584Z,17.42
2022-12-11T18:15:42.396Z,18.55
2022-12-11T18:18:09.961Z,16.70
2022-12-11T18:20:37.794Z,16.95
2022-12-11T18:23:08.132Z,20.98
2022-12-11T18:25:34.878Z,33.58
2022-12-11T18:28:01.692Z,22.90
2022-12-11T18:30:28.425Z,18.70
2022-12-11T18:32:55.233Z,18.80
2022-12-11T18:35:21.981Z,18.20
2022-12-11T18:37:48.762Z,17.83
2022-12-11T18:40:15.515Z,17.80
2022-12-11T18:45:28.922Z,18.40
2022-12-11T18:50:46.660Z,18.30
2022-12-11T18:53:13.793Z,17.63
2022-12-11T18:55:44.991Z,17.75
2022-12-11T18:58:13.544Z,18.77
2022-12-11T19:03:28.163Z,17.73
2022-12-11T19:05:54.863Z,17.55
2022-12-11T19:11:08.685Z,17.90
2022-12-11T19:16:25.645Z,17.13
2022-12-11T19:21:14.010Z,0
2022-12-11T19:21:40.301Z,18.80
2022-12-11T19:24:09.467Z,33.22
2022-12-11T19:29:26.282Z,20.50
2022-12-11T19:34:40.350Z,18.70
2022-12-11T19:39:53.889Z,18.55
2022-12-11T19:42:20.649Z,17.90
2022-12-11T19:44:47.353Z,17.85
2022-12-11T19:47:14.208Z,18.30
2022-12-11T19:49:40.945Z,17.70
2022-12-11T19:52:07.725Z,16.98
2022-12-11T19:54:34.462Z,17.80
2022-12-11T19:57:01.217Z,17.65
2022-12-11T20:02:14.700Z,17.80
2022-12-11T20:07:30.813Z,17.50
2022-12-11T20:09:59.035Z,17.65
2022-12-11T20:12:25.829Z,18.17
2022-12-11T20:14:52.548Z,18.20
2022-12-11T20:17:16.710Z,0
2022-12-11T20:17:19.362Z,19.00
2022-12-11T20:19:46.118Z,18.08
2022-12-11T20:22:12.929Z,19.00
2022-12-11T20:27:26.514Z,18.80
2022-12-11T20:29:53.316Z,17.30
2022-12-11T20:32:20.158Z,19.17
2022-12-11T20:34:46.919Z,18.20
2022-12-11T20:37:13.680Z,32.65
2022-12-11T20:42:27.145Z,24.30
2022-12-11T20:47:41.308Z,17.95
2022-12-11T20:50:08.221Z,17.25
2022-12-11T20:52:35.187Z,17.70
2022-12-11T20:55:01.940Z,18.80
2022-12-11T20:57:28.692Z,20.00
2022-12-11T20:59:55.480Z,18.20
2022-12-11T21:02:22.301Z,18.40
2022-12-11T21:04:49.098Z,18.87
2022-12-11T21:07:16.202Z,18.48
2022-12-11T21:09:43.388Z,18.70
2022-12-11T21:12:10.114Z,18.15
2022-12-11T21:14:36.875Z,18.60
2022-12-11T21:17:03.638Z,19.02
2022-12-11T21:19:30.411Z,18.75
2022-12-11T21:21:57.150Z,18.15
2022-12-11T21:24:26.531Z,18.75
2022-12-11T21:26:55.241Z,18.67
2022-12-11T21:29:23.535Z,18.47
2022-12-11T21:31:50.433Z,50.88
2022-12-11T21:34:24.877Z,34.60
2022-12-11T21:36:52.192Z,38.28
2022-12-11T21:39:18.937Z,22.20
2022-12-11T21:41:45.683Z,20.00
2022-12-11T21:45:25.997Z,19.38
2022-12-11T21:46:10.571Z,0
2022-12-11T21:46:59.199Z,19.40
2022-12-11T21:52:13.533Z,19.45
2022-12-11T21:52:44.150Z,0
2022-12-11T21:54:40.952Z,19.27
2022-12-11T21:57:07.819Z,20.00
2022-12-11T21:59:34.612Z,19.05
2022-12-11T22:02:01.487Z,18.60
2022-12-11T22:04:28.228Z,19.25
2022-12-11T22:06:54.948Z,19.17
2022-12-11T22:09:21.678Z,18.98
2022-12-11T22:11:49.276Z,19.00
2022-12-11T22:14:18.275Z,19.08
2022-12-11T22:16:45.744Z,18.60
2022-12-11T22:19:12.534Z,18.45
2022-12-11T22:21:39.535Z,18.40
2022-12-11T22:24:06.546Z,18.00
2022-12-11T22:26:33.356Z,17.70
2022-12-11T22:29:00.130Z,17.90
2022-12-11T22:31:27.506Z,17.67
2022-12-11T22:33:55.120Z,17.90
2022-12-11T22:36:27.044Z,17.40
2022-12-11T22:38:54.185Z,18.33
2022-12-11T22:41:31.150Z,17.92
2022-12-11T22:43:58.460Z,16.67
2022-12-11T22:49:15.234Z,17.70
2022-12-11T22:51:09.780Z,0
2022-12-11T22:51:42.006Z,17.30
2022-12-11T22:54:08.799Z,16.77
2022-12-11T22:56:35.598Z,16.65
2022-12-11T22:59:02.376Z,16.73
2022-12-11T23:01:29.150Z,16.08
2022-12-11T23:03:55.944Z,16.95
2022-12-11T23:06:24.453Z,17.15
2022-12-11T23:08:52.571Z,17.42
2022-12-11T23:11:38.373Z,16.55
2022-12-11T23:14:07.211Z,17.30
2022-12-11T23:16:34.154Z,17.20
2022-12-11T23:19:01.369Z,16.73
2022-12-11T23:21:29.012Z,16.90
2022-12-11T23:23:56.347Z,17.27
2022-12-11T23:26:23.631Z,16.85
2022-12-11T23:28:50.417Z,16.13
2022-12-11T23:31:17.511Z,15.68
2022-12-11T23:36:31.332Z,15.80
2022-12-11T23:41:44.830Z,16.03
2022-12-11T23:44:12.179Z,17.00
2022-12-11T23:46:39.083Z,17.00
2022-12-11T23:49:05.855Z,16.90
2022-12-11T23:51:32.785Z,16.25
2022-12-11T23:53:59.514Z,15.80
2022-12-11T23:56:29.110Z,16.57
